Time,TemperatureF,DewpointF,PressureIn,WindDirection,WindDirectionDegrees,WindSpeedMPH,WindSpeedGustMPH,Humidity,HourlyPrecipIn,Conditions,Clouds,dailyrainin,SoftwareType,DateUTC
2013-04-25 00:01:00,60.1,56.5,30.12,WSW,248,0.0,0.0,88,0.00,,SCT075,0.00,VWS V14.01,2013-04-25 04:01:00,
2013-04-25 00:02:00,60.1,56.5,30.12,WSW,248,0.0,0.0,88,0.00,,SCT075,0.00,VWS V14.01,2013-04-25 04:02:00,
2013-04-25 00:07:00,59.7,56.2,30.12,WSW,248,2.2,2.2,88,0.00,,SCT075,0.00,VWS V14.01,2013-04-25 04:07:00,
2013-04-25 00:12:00,59.7,56.2,30.12,WNW,292,3.1,3.1,88,0.00,,SCT075,0.00,VWS V14.01,2013-04-25 04:12:00,
2013-04-25 00:17:00,60.1,54.2,30.12,NNW,338,2.2,2.7,81,0.00,,SCT075,0.00,VWS V14.01,2013-04-25 04:17:00,
2013-04-25 00:22:00,60.3,52.7,30.12,NNW,338,2.7,2.7,76,0.00,,OVC048,0.00,VWS V14.01,2013-04-25 04:22:00,
2013-04-25 00:27:00,60.3,50.1,30.12,NNW,338,2.7,3.1,69,0.00,,OVC048,0.00,VWS V14.01,2013-04-25 04:27:00,
2013-04-25 00:32:00,60.1,47.5,30.12,North,0,3.1,3.1,63,0.00,,OVC048,0.00,VWS V14.01,2013-04-25 04:32:00,
2013-04-25 00:37:00,60.1,46.6,30.12,North,0,2.2,3.6,61,0.00,,OVC048,0.00,VWS V14.01,2013-04-25 04:37:00,
2013-04-25 00:42:00,60.1,45.7,30.12,North,0,2.2,2.2,59,0.00,,OVC038,0.00,VWS V14.01,2013-04-25 04:42:00,
2013-04-25 00:47:00,59.9,45.1,30.12,NNW,338,2.2,2.2,58,0.00,,OVC038,0.00,VWS V14.01,2013-04-25 04:47:00,
2013-04-25 00:52:00,59.9,45.1,30.12,NNE,22,3.1,3.6,58,0.00,,OVC038,0.00,VWS V14.01,2013-04-25 04:52:00,
2013-04-25 00:57:00,59.9,44.7,30.12,NNE,22,2.2,3.1,57,0.00,,OVC038,0.00,VWS V14.01,2013-04-25 04:57:00,
2013-04-25 01:02:00,59.9,43.7,30.12,NNW,338,2.2,2.7,55,0.00,,OVC038,0.00,VWS V14.01,2013-04-25 05:02:00,
2013-04-25 01:07:00,59.9,43.2,30.12,NNW,338,2.2,2.7,54,0.00,,OVC038,0.00,VWS V14.01,2013-04-25 05:07:00,
2013-04-25 01:12:00,59.7,43.1,30.12,North,0,2.7,2.7,54,0.00,,OVC038,0.00,VWS V14.01,2013-04-25 05:12:00,
2013-04-25 01:17:00,59.7,43.1,30.12,North,0,3.1,3.1,54,0.00,,OVC038,0.00,VWS V14.01,2013-04-25 05:17:00,
2013-04-25 01:22:00,59.4,42.7,30.12,WNW,292,2.2,2.2,54,0.00,,OVC070,0.00,VWS V14.01,2013-04-25 05:22:00,
2013-04-25 01:27:00,59.0,42.9,30.12,WNW,292,2.7,2.7,55,0.00,,OVC070,0.00,VWS V14.01,2013-04-25 05:27:00,
2013-04-25 01:32:00,58.8,43.2,30.12,WNW,292,2.7,2.7,56,0.00,,OVC070,0.00,VWS V14.01,2013-04-25 05:32:00,
2013-04-25 01:37:00,58.6,42.5,30.12,WNW,292,3.1,3.1,55,0.00,,OVC070,0.00,VWS V14.01,2013-04-25 05:37:00,
2013-04-25 01:42:00,58.6,42.1,30.15,WNW,292,3.1,3.1,54,0.00,,OVC055,0.00,VWS V14.01,2013-04-25 05:42:00,
2013-04-25 01:47:00,58.6,41.6,30.15,WNW,292,2.7,2.7,53,0.00,,OVC055,0.00,VWS V14.01,2013-04-25 05:47:00,
2013-04-25 01:52:00,58.5,41.4,30.12,WNW,292,2.7,2.7,53,0.00,,OVC055,0.00,VWS V14.01,2013-04-25 05:52:00,
2013-04-25 01:57:00,58.3,41.2,30.12,North,0,3.1,3.1,53,0.00,,OVC055,0.00,VWS V14.01,2013-04-25 05:57:00,
2013-04-25 02:02:00,58.1,41.1,30.12,North,0,2.2,2.7,53,0.00,,OVC065,0.00,VWS V14.01,2013-04-25 06:02:00,
2013-04-25 02:07:00,57.9,40.4,30.12,North,0,0.0,0.0,52,0.00,,OVC065,0.00,VWS V14.01,2013-04-25 06:07:00,
2013-04-25 02:12:00,57.6,41.1,30.12,North,0,2.7,3.1,54,0.00,,OVC065,0.00,VWS V14.01,2013-04-25 06:12:00,
2013-04-25 02:17:00,57.4,40.4,30.12,North,0,2.2,3.1,53,0.00,,OVC065,0.00,VWS V14.01,2013-04-25 06:17:00,
2013-04-25 02:22:00,57.2,40.7,30.12,WNW,292,2.7,2.7,54,0.00,,OVC065,0.00,VWS V14.01,2013-04-25 06:22:00,
2013-04-25 02:27:00,57.2,40.2,30.12,NNW,338,2.7,3.1,53,0.00,,OVC065,0.00,VWS V14.01,2013-04-25 06:27:00,
2013-04-25 02:32:00,57.2,40.2,30.12,NNW,338,3.1,3.1,53,0.00,,OVC065,0.00,VWS V14.01,2013-04-25 06:32:00,
2013-04-25 02:37:00,57.0,40.1,30.12,North,0,2.7,3.1,53,0.00,,OVC065,0.00,VWS V14.01,2013-04-25 06:37:00,
2013-04-25 02:42:00,57.0,40.1,30.12,North,0,2.7,2.7,53,0.00,,OVC070,0.00,VWS V14.01,2013-04-25 06:42:00,
2013-04-25 02:47:00,56.8,39.9,30.12,North,0,2.7,2.7,53,0.00,,OVC070,0.00,VWS V14.01,2013-04-25 06:47:00,
2013-04-25 02:52:00,56.7,39.7,30.12,North,0,2.7,2.7,53,0.00,,OVC070,0.00,VWS V14.01,2013-04-25 06:52:00,
2013-04-25 02:57:00,56.3,39.4,30.12,North,0,0.0,2.2,53,0.00,,OVC070,0.00,VWS V14.01,2013-04-25 06:57:00,
2013-04-25 03:02:00,55.9,39.5,30.12,North,0,0.0,0.0,54,0.00,,BKN070,0.00,VWS V14.01,2013-04-25 07:02:00,
2013-04-25 03:07:00,55.6,39.7,30.12,North,0,0.0,0.0,55,0.00,,BKN070,0.00,VWS V14.01,2013-04-25 07:07:00,
2013-04-25 03:12:00,55.2,40.3,30.15,North,0,0.0,0.0,57,0.00,,BKN070,0.00,VWS V14.01,2013-04-25 07:12:00,
2013-04-25 03:17:00,54.7,40.7,30.15,North,0,0.0,0.0,59,0.00,,BKN070,0.00,VWS V14.01,2013-04-25 07:17:00,
2013-04-25 03:22:00,54.3,40.8,30.15,North,0,0.0,0.0,60,0.00,,BKN060,0.00,VWS V14.01,2013-04-25 07:22:00,
2013-04-25 03:27:00,54.0,40.8,30.15,North,0,0.0,0.0,61,0.00,,BKN060,0.00,VWS V14.01,2013-04-25 07:27:00,
2013-04-25 03:32:00,53.4,41.2,30.15,North,0,0.0,0.0,63,0.00,,BKN060,0.00,VWS V14.01,2013-04-25 07:32:00,
2013-04-25 03:37:00,53.1,41.6,30.15,North,0,0.0,0.0,65,0.00,,BKN060,0.00,VWS V14.01,2013-04-25 07:37:00,
2013-04-25 03:42:00,52.5,41.5,30.15,North,0,2.2,2.2,66,0.00,,SCT070,0.00,VWS V14.01,2013-04-25 07:42:00,
2013-04-25 03:47:00,52.3,41.7,30.15,North,0,0.0,2.7,67,0.00,,SCT070,0.00,VWS V14.01,2013-04-25 07:47:00,
2013-04-25 03:52:00,52.3,41.3,30.15,North,0,0.0,0.0,66,0.00,,SCT070,0.00,VWS V14.01,2013-04-25 07:52:00,
2013-04-25 03:57:00,52.2,41.2,30.15,North,0,2.7,2.7,66,0.00,,SCT070,0.00,VWS V14.01,2013-04-25 07:57:00,
2013-04-25 04:02:00,52.3,40.9,30.15,North,0,2.7,2.7,65,0.00,,SCT040,0.00,VWS V14.01,2013-04-25 08:02:00,
2013-04-25 04:07:00,52.2,40.4,30.18,North,0,2.2,2.7,64,0.00,,SCT040,0.00,VWS V14.01,2013-04-25 08:07:00,
2013-04-25 04:12:00,52.0,39.4,30.18,North,0,2.2,2.2,62,0.00,,SCT040,0.00,VWS V14.01,2013-04-25 08:12:00,
2013-04-25 04:17:00,51.6,39.5,30.18,North,0,2.2,2.7,63,0.00,,SCT040,0.00,VWS V14.01,2013-04-25 08:17:00,
2013-04-25 04:22:00,51.4,38.9,30.18,North,0,2.7,2.7,62,0.00,,CLR,0.00,VWS V14.01,2013-04-25 08:22:00,
2013-04-25 04:27:00,51.3,37.9,30.18,North,0,0.0,2.2,60,0.00,,CLR,0.00,VWS V14.01,2013-04-25 08:27:00,
2013-04-25 04:32:00,51.1,36.4,30.18,North,0,3.6,3.6,57,0.00,,CLR,0.00,VWS V14.01,2013-04-25 08:32:00,
2013-04-25 04:37:00,50.9,35.8,30.18,NNE,22,3.1,3.1,56,0.00,,CLR,0.00,VWS V14.01,2013-04-25 08:37:00,
2013-04-25 04:42:00,50.7,35.2,30.18,NNE,22,2.2,2.7,55,0.00,,CLR,0.00,VWS V14.01,2013-04-25 08:42:00,
2013-04-25 04:47:00,50.4,34.8,30.18,NNE,22,2.2,3.1,55,0.00,,CLR,0.00,VWS V14.01,2013-04-25 08:47:00,
2013-04-25 04:52:00,50.2,34.2,30.18,NNE,22,2.7,2.7,54,0.00,,CLR,0.00,VWS V14.01,2013-04-25 08:52:00,
2013-04-25 04:57:00,50.0,33.6,30.18,NNE,22,0.0,2.7,53,0.00,,CLR,0.00,VWS V14.01,2013-04-25 08:57:00,
2013-04-25 05:02:00,49.5,33.1,30.18,NNE,22,0.0,0.0,53,0.00,,CLR,0.00,VWS V14.01,2013-04-25 09:02:00,
2013-04-25 05:07:00,49.1,32.7,30.18,NNE,22,2.2,2.2,53,0.00,,CLR,0.00,VWS V14.01,2013-04-25 09:07:00,
2013-04-25 05:12:00,48.9,33.0,30.18,NNE,22,2.2,2.7,54,0.00,,CLR,0.00,VWS V14.01,2013-04-25 09:12:00,
2013-04-25 05:17:00,48.7,32.8,30.18,North,0,2.7,3.1,54,0.00,,CLR,0.00,VWS V14.01,2013-04-25 09:17:00,
2013-04-25 05:22:00,48.7,32.4,30.18,North,0,2.7,2.7,53,0.00,,CLR,0.00,VWS V14.01,2013-04-25 09:22:00,
2013-04-25 05:27:00,48.6,31.8,30.18,North,0,2.2,3.1,52,0.00,,CLR,0.00,VWS V14.01,2013-04-25 09:27:00,
2013-04-25 05:32:00,48.4,31.1,30.18,North,0,0.0,2.7,51,0.00,,CLR,0.00,VWS V14.01,2013-04-25 09:32:00,
2013-04-25 05:38:00,48.0,31.7,30.18,North,0,0.0,0.0,53,0.00,,CLR,0.00,VWS V14.01,2013-04-25 09:38:00,
2013-04-25 05:43:00,47.5,31.7,30.21,North,0,0.0,0.0,54,0.00,,CLR,0.00,VWS V14.01,2013-04-25 09:43:00,
2013-04-25 05:48:00,47.5,31.7,30.21,North,0,2.2,2.2,54,0.00,,CLR,0.00,VWS V14.01,2013-04-25 09:48:00,
2013-04-25 05:53:00,47.5,31.2,30.21,NNW,338,2.7,4.9,53,0.00,,CLR,0.00,VWS V14.01,2013-04-25 09:53:00,
2013-04-25 05:58:00,47.5,30.8,30.21,NNE,22,3.1,3.1,52,0.00,,CLR,0.00,VWS V14.01,2013-04-25 09:58:00,
2013-04-25 06:03:00,47.5,30.3,30.21,NNE,22,2.2,3.1,51,0.00,,CLR,0.00,VWS V14.01,2013-04-25 10:03:00,
2013-04-25 06:08:00,47.3,30.1,30.21,North,0,3.1,3.6,51,0.00,,CLR,0.00,VWS V14.01,2013-04-25 10:08:00,
2013-04-25 06:13:00,47.3,29.6,30.21,North,0,3.1,3.1,50,0.00,,CLR,0.00,VWS V14.01,2013-04-25 10:13:00,
2013-04-25 06:18:00,47.3,29.6,30.21,North,0,2.7,3.1,50,0.00,,CLR,0.00,VWS V14.01,2013-04-25 10:18:00,
2013-04-25 06:23:00,47.1,29.5,30.21,NW,315,2.7,2.7,50,0.00,,CLR,0.00,VWS V14.01,2013-04-25 10:23:00,
2013-04-25 06:28:00,46.8,29.1,30.21,NW,315,3.1,3.1,50,0.00,,CLR,0.00,VWS V14.01,2013-04-25 10:28:00,
2013-04-25 06:33:00,46.2,29.6,30.21,NW,315,0.0,3.1,52,0.00,,CLR,0.00,VWS V14.01,2013-04-25 10:33:00,
2013-04-25 06:38:00,46.0,29.9,30.24,NNW,338,2.7,2.7,53,0.00,,CLR,0.00,VWS V14.01,2013-04-25 10:38:00,
2013-04-25 06:43:00,45.7,29.5,30.24,NNW,338,0.0,2.2,53,0.00,,CLR,0.00,VWS V14.01,2013-04-25 10:43:00,
2013-04-25 06:48:00,45.1,30.0,30.24,NNW,338,0.0,0.0,55,0.00,,CLR,0.00,VWS V14.01,2013-04-25 10:48:00,
2013-04-25 06:53:00,45.0,29.8,30.24,NNW,338,0.0,0.0,55,0.00,,CLR,0.00,VWS V14.01,2013-04-25 10:53:00,
2013-04-25 06:58:00,44.6,29.9,30.24,NNW,338,0.0,0.0,56,0.00,,CLR,0.00,VWS V14.01,2013-04-25 10:58:00,
2013-04-25 07:03:00,44.1,29.8,30.24,NNW,338,0.0,0.0,57,0.00,,CLR,0.00,VWS V14.01,2013-04-25 11:03:00,
2013-04-25 07:08:00,43.5,30.2,30.24,NNW,338,0.0,0.0,59,0.00,,CLR,0.00,VWS V14.01,2013-04-25 11:08:00,
2013-04-25 07:13:00,43.3,30.8,30.24,NNW,338,0.0,0.0,61,0.00,,CLR,0.00,VWS V14.01,2013-04-25 11:13:00,
2013-04-25 07:18:00,42.8,30.7,30.24,NNW,338,0.0,0.0,62,0.00,,CLR,0.00,VWS V14.01,2013-04-25 11:18:00,
2013-04-25 07:23:00,42.6,31.3,30.24,NNW,338,0.0,0.0,64,0.00,,CLR,0.00,VWS V14.01,2013-04-25 11:23:00,
2013-04-25 07:28:00,42.4,31.5,30.24,NNW,338,0.0,0.0,65,0.00,,CLR,0.00,VWS V14.01,2013-04-25 11:28:00,
2013-04-25 07:33:00,42.6,32.1,30.24,NNW,338,0.0,0.0,66,0.00,,CLR,0.00,VWS V14.01,2013-04-25 11:33:00,
2013-04-25 07:38:00,43.2,33.3,30.27,NNW,338,0.0,0.0,68,0.00,,CLR,0.00,VWS V14.01,2013-04-25 11:38:00,
2013-04-25 07:43:00,43.0,33.2,30.27,NNW,338,0.0,0.0,68,0.00,,CLR,0.00,VWS V14.01,2013-04-25 11:43:00,
2013-04-25 07:48:00,43.0,33.5,30.27,NNW,338,0.0,0.0,69,0.00,,CLR,0.00,VWS V14.01,2013-04-25 11:48:00,
2013-04-25 07:53:00,43.5,33.7,30.27,NNW,338,0.0,0.0,68,0.00,,CLR,0.00,VWS V14.01,2013-04-25 11:53:00,
2013-04-25 07:58:00,44.6,32.8,30.27,NNW,338,0.0,0.0,63,0.00,,CLR,0.00,VWS V14.01,2013-04-25 11:58:00,
2013-04-25 08:03:00,45.1,31.7,30.27,NNW,338,0.0,0.0,59,0.00,,CLR,0.00,VWS V14.01,2013-04-25 12:03:00,
2013-04-25 08:08:00,46.0,31.7,30.27,NNW,338,0.0,0.0,57,0.00,,CLR,0.00,VWS V14.01,2013-04-25 12:08:00,
2013-04-25 08:13:00,46.8,31.0,30.27,NNW,338,2.2,2.2,54,0.00,,CLR,0.00,VWS V14.01,2013-04-25 12:13:00,
2013-04-25 08:18:00,47.5,30.3,30.27,NNW,338,0.0,0.0,51,0.00,,CLR,0.00,VWS V14.01,2013-04-25 12:18:00,
2013-04-25 08:23:00,48.2,30.0,30.27,NNW,338,0.0,0.0,49,0.00,,CLR,0.00,VWS V14.01,2013-04-25 12:23:00,
2013-04-25 08:28:00,48.6,29.8,30.27,NNW,338,2.7,2.7,48,0.00,,CLR,0.00,VWS V14.01,2013-04-25 12:28:00,
2013-04-25 08:33:00,48.7,29.9,30.27,ENE,68,2.7,2.7,48,0.00,,CLR,0.00,VWS V14.01,2013-04-25 12:33:00,
2013-04-25 08:38:00,49.1,29.8,30.27,ENE,68,0.0,2.2,47,0.00,,CLR,0.00,VWS V14.01,2013-04-25 12:38:00,
2013-04-25 08:43:00,49.5,29.6,30.27,NNW,338,0.0,0.0,46,0.00,,CLR,0.00,VWS V14.01,2013-04-25 12:43:00,
2013-04-25 08:48:00,50.2,30.2,30.27,ENE,68,3.1,4.5,46,0.00,,CLR,0.00,VWS V14.01,2013-04-25 12:48:00,
2013-04-25 08:53:00,50.4,28.7,30.27,SE,135,0.0,0.0,43,0.00,,CLR,0.00,VWS V14.01,2013-04-25 12:53:00,
2013-04-25 08:58:00,50.4,28.7,30.27,SE,135,2.2,2.2,43,0.00,,CLR,0.00,VWS V14.01,2013-04-25 12:58:00,
2013-04-25 09:03:00,50.4,27.6,30.27,SSE,158,3.1,3.1,41,0.00,,CLR,0.00,VWS V14.01,2013-04-25 13:03:00,
2013-04-25 09:08:00,50.9,30.3,30.27,NE,45,3.1,3.1,45,0.00,,CLR,0.00,VWS V14.01,2013-04-25 13:08:00,
2013-04-25 09:13:00,51.1,28.2,30.27,NE,45,0.0,2.2,41,0.00,,CLR,0.00,VWS V14.01,2013-04-25 13:13:00,
2013-04-25 09:18:00,51.6,29.3,30.27,SSE,158,4.0,5.8,42,0.00,,CLR,0.00,VWS V14.01,2013-04-25 13:18:00,
2013-04-25 09:23:00,52.0,28.4,30.27,SE,135,3.1,3.1,40,0.00,,CLR,0.00,VWS V14.01,2013-04-25 13:23:00,
2013-04-25 09:28:00,52.7,28.5,30.27,ESE,112,3.1,3.1,39,0.00,,CLR,0.00,VWS V14.01,2013-04-25 13:28:00,
2013-04-25 09:33:00,52.7,28.5,30.27,ENE,68,2.2,2.2,39,0.00,,CLR,0.00,VWS V14.01,2013-04-25 13:33:00,
2013-04-25 09:38:00,52.7,27.8,30.27,SE,135,2.2,4.0,38,0.00,,CLR,0.00,VWS V14.01,2013-04-25 13:38:00,
2013-04-25 09:43:00,52.3,26.9,30.27,NNE,22,2.2,3.1,37,0.00,,CLR,0.00,VWS V14.01,2013-04-25 13:43:00,
2013-04-25 09:48:00,52.7,27.8,30.27,NNE,22,2.7,3.1,38,0.00,,CLR,0.00,VWS V14.01,2013-04-25 13:48:00,
2013-04-25 09:53:00,52.9,26.7,30.27,NNE,22,3.1,3.1,36,0.00,,CLR,0.00,VWS V14.01,2013-04-25 13:53:00,
2013-04-25 09:58:00,53.1,26.8,30.27,NNE,22,2.7,2.7,36,0.00,,CLR,0.00,VWS V14.01,2013-04-25 13:58:00,
2013-04-25 10:03:00,53.6,27.3,30.27,SSW,202,2.2,3.1,36,0.00,,CLR,0.00,VWS V14.01,2013-04-25 14:03:00,
2013-04-25 10:08:00,54.5,28.8,30.27,SSE,158,3.1,4.0,37,0.00,,CLR,0.00,VWS V14.01,2013-04-25 14:08:00,
2013-04-25 10:13:00,54.5,27.4,30.27,NE,45,2.7,2.7,35,0.00,,CLR,0.00,VWS V14.01,2013-04-25 14:13:00,
2013-04-25 10:18:00,54.3,28.0,30.27,SE,135,3.6,4.0,36,0.00,,CLR,0.00,VWS V14.01,2013-04-25 14:18:00,
2013-04-25 10:23:00,54.5,28.1,30.27,SE,135,2.7,2.7,36,0.00,,CLR,0.00,VWS V14.01,2013-04-25 14:23:00,
2013-04-25 10:28:00,54.3,28.0,30.27,SE,135,4.0,4.0,36,0.00,,CLR,0.00,VWS V14.01,2013-04-25 14:28:00,
2013-04-25 10:33:00,54.3,28.0,30.27,ESE,112,2.7,2.7,36,0.00,,CLR,0.00,VWS V14.01,2013-04-25 14:33:00,
2013-04-25 10:38:00,54.9,27.0,30.30,NNW,338,3.6,3.6,34,0.00,,CLR,0.00,VWS V14.01,2013-04-25 14:38:00,
2013-04-25 10:43:00,55.6,27.0,30.30,SSE,158,4.9,4.9,33,0.00,,CLR,0.00,VWS V14.01,2013-04-25 14:43:00,
2013-04-25 10:48:00,56.1,26.7,30.30,SSE,158,2.2,2.2,32,0.00,,CLR,0.00,VWS V14.01,2013-04-25 14:48:00,
2013-04-25 10:53:00,56.5,26.2,30.30,NNE,22,0.0,2.2,31,0.00,,CLR,0.00,VWS V14.01,2013-04-25 14:53:00,
2013-04-25 10:58:00,57.6,26.4,30.30,ENE,68,2.2,3.6,30,0.00,,CLR,0.00,VWS V14.01,2013-04-25 14:58:00,
2013-04-25 11:03:00,57.9,27.5,30.30,SE,135,2.7,3.1,31,0.00,,CLR,0.00,VWS V14.01,2013-04-25 15:03:00,
2013-04-25 11:08:00,57.6,26.4,30.27,WNW,292,3.1,3.1,30,0.00,,CLR,0.00,VWS V14.01,2013-04-25 15:08:00,
2013-04-25 11:13:00,59.4,28.7,30.27,SE,135,2.2,2.2,31,0.00,,CLR,0.00,VWS V14.01,2013-04-25 15:13:00,
2013-04-25 11:18:00,59.7,28.3,30.27,SE,135,4.9,5.8,30,0.00,,CLR,0.00,VWS V14.01,2013-04-25 15:18:00,
2013-04-25 11:23:00,60.1,26.0,30.30,SSW,202,4.0,4.0,27,0.00,,CLR,0.00,VWS V14.01,2013-04-25 15:23:00,
2013-04-25 11:28:00,60.4,28.1,30.30,SW,225,3.1,3.6,29,0.00,,CLR,0.00,VWS V14.01,2013-04-25 15:28:00,
2013-04-25 11:33:00,60.6,26.5,30.30,East,90,4.5,8.1,27,0.00,,CLR,0.00,VWS V14.01,2013-04-25 15:33:00,
2013-04-25 11:38:00,60.8,25.7,30.30,ENE,68,2.2,4.0,26,0.00,,CLR,0.00,VWS V14.01,2013-04-25 15:38:00,
2013-04-25 11:43:00,60.4,24.5,30.30,SSE,158,4.0,4.5,25,0.00,,CLR,0.00,VWS V14.01,2013-04-25 15:43:00,
2013-04-25 11:48:00,60.6,25.6,30.30,South,180,4.0,4.9,26,0.00,,CLR,0.00,VWS V14.01,2013-04-25 15:48:00,
2013-04-25 11:53:00,60.6,25.6,30.30,SSE,158,3.6,5.4,26,0.00,,CLR,0.00,VWS V14.01,2013-04-25 15:53:00,
2013-04-25 11:58:00,61.5,25.4,30.30,South,180,3.6,4.0,25,0.00,,CLR,0.00,VWS V14.01,2013-04-25 15:58:00,
2013-04-25 12:03:00,62.2,27.0,30.30,South,180,2.2,3.6,26,0.00,,CLR,0.00,VWS V14.01,2013-04-25 16:03:00,
2013-04-25 12:08:00,63.0,26.6,30.30,SSE,158,2.7,3.6,25,0.00,,CLR,0.00,VWS V14.01,2013-04-25 16:08:00,
2013-04-25 12:13:00,63.0,25.6,30.30,SSE,158,3.6,4.9,24,0.00,,CLR,0.00,VWS V14.01,2013-04-25 16:13:00,
2013-04-25 12:18:00,63.5,27.1,30.30,SSE,158,3.1,3.1,25,0.00,,CLR,0.00,VWS V14.01,2013-04-25 16:18:00,
2013-04-25 12:23:00,64.8,26.1,30.30,ENE,68,3.6,4.0,23,0.00,,CLR,0.00,VWS V14.01,2013-04-25 16:23:00,
2013-04-25 12:28:00,63.5,26.1,30.30,SSE,158,3.6,4.0,24,0.00,,CLR,0.00,VWS V14.01,2013-04-25 16:28:00,
2013-04-25 12:33:00,63.1,25.8,30.30,SW,225,2.7,2.7,24,0.00,,CLR,0.00,VWS V14.01,2013-04-25 16:33:00,
2013-04-25 12:38:00,64.9,27.3,30.30,East,90,4.0,4.0,24,0.00,,CLR,0.00,VWS V14.01,2013-04-25 16:38:00,
2013-04-25 12:43:00,64.8,27.2,30.30,SSE,158,5.4,5.4,24,0.00,,CLR,0.00,VWS V14.01,2013-04-25 16:43:00,
2013-04-25 12:48:00,65.5,27.8,30.30,ENE,68,3.1,3.6,24,0.00,,CLR,0.00,VWS V14.01,2013-04-25 16:48:00,
2013-04-25 12:53:00,66.9,27.9,30.27,SE,135,0.0,3.1,23,0.00,,CLR,0.00,VWS V14.01,2013-04-25 16:53:00,
2013-04-25 12:58:00,66.9,24.6,30.27,ESE,112,2.7,2.7,20,0.00,,CLR,0.00,VWS V14.01,2013-04-25 16:58:00,
2013-04-25 13:03:00,67.6,28.5,30.27,SSE,158,2.7,3.6,23,0.00,,CLR,0.00,VWS V14.01,2013-04-25 17:03:00,
2013-04-25 13:08:00,66.0,27.2,30.27,SSW,202,0.0,4.0,23,0.00,,CLR,0.00,VWS V14.01,2013-04-25 17:08:00,
2013-04-25 13:13:00,66.9,24.6,30.27,NE,45,0.0,2.2,20,0.00,,CLR,0.00,VWS V14.01,2013-04-25 17:13:00,
2013-04-25 13:18:00,68.7,26.1,30.27,NE,45,3.1,3.1,20,0.00,,CLR,0.00,VWS V14.01,2013-04-25 17:18:00,
2013-04-25 13:23:00,66.2,24.0,30.27,SSE,158,3.1,4.0,20,0.00,,CLR,0.00,VWS V14.01,2013-04-25 17:23:00,
2013-04-25 13:28:00,67.1,24.7,30.27,North,0,4.0,4.0,20,0.00,,CLR,0.00,VWS V14.01,2013-04-25 17:28:00,
2013-04-25 13:33:00,68.4,25.8,30.27,North,0,2.2,2.2,20,0.00,,CLR,0.00,VWS V14.01,2013-04-25 17:33:00,
2013-04-25 13:38:00,68.5,25.9,30.27,SE,135,2.2,2.2,20,0.00,,CLR,0.00,VWS V14.01,2013-04-25 17:38:00,
2013-04-25 13:43:00,68.2,25.6,30.27,SSE,158,4.0,4.0,20,0.00,,CLR,0.00,VWS V14.01,2013-04-25 17:43:00,
2013-04-25 13:48:00,67.5,25.0,30.27,SSW,202,4.9,4.9,20,0.00,,CLR,0.00,VWS V14.01,2013-04-25 17:48:00,
2013-04-25 13:53:00,68.0,25.5,30.27,SE,135,2.2,3.1,20,0.00,,CLR,0.00,VWS V14.01,2013-04-25 17:53:00,
2013-04-25 13:58:00,67.8,25.3,30.27,West,270,3.6,4.5,20,0.00,,CLR,0.00,VWS V14.01,2013-04-25 17:58:00,
2013-04-25 14:03:00,69.3,26.5,30.27,SSE,158,3.6,4.0,20,0.00,,CLR,0.00,VWS V14.01,2013-04-25 18:03:00,
2013-04-25 14:08:00,70.0,23.2,30.27,WSW,248,2.7,4.0,17,0.00,,CLR,0.00,VWS V14.01,2013-04-25 18:08:00,
2013-04-25 14:13:00,68.9,22.3,30.27,WSW,248,2.7,3.1,17,0.00,,CLR,0.00,VWS V14.01,2013-04-25 18:13:00,
2013-04-25 14:18:00,69.6,26.8,30.27,SSE,158,2.7,5.4,20,0.00,,CLR,0.00,VWS V14.01,2013-04-25 18:18:00,
2013-04-25 14:23:00,70.3,26.2,30.27,ESE,112,5.4,5.4,19,0.00,,CLR,0.00,VWS V14.01,2013-04-25 18:23:00,
2013-04-25 14:28:00,69.8,23.1,30.27,SE,135,3.6,4.0,17,0.00,,CLR,0.00,VWS V14.01,2013-04-25 18:28:00,
2013-04-25 14:33:00,68.9,22.3,30.27,SSE,158,4.9,4.9,17,0.00,,CLR,0.00,VWS V14.01,2013-04-25 18:33:00,
2013-04-25 14:38:00,69.8,23.1,30.27,ESE,112,3.6,3.6,17,0.00,,CLR,0.00,VWS V14.01,2013-04-25 18:38:00,
2013-04-25 14:43:00,69.8,23.1,30.27,SSW,202,3.1,3.1,17,0.00,,CLR,0.00,VWS V14.01,2013-04-25 18:43:00,
2013-04-25 14:48:00,70.0,23.2,30.27,SSE,158,3.6,3.6,17,0.00,,CLR,0.00,VWS V14.01,2013-04-25 18:48:00,
2013-04-25 14:53:00,68.9,22.3,30.27,SE,135,6.3,6.3,17,0.00,,CLR,0.00,VWS V14.01,2013-04-25 18:53:00,
2013-04-25 14:58:00,70.0,23.2,30.27,ENE,68,2.2,2.2,17,0.00,,CLR,0.00,VWS V14.01,2013-04-25 18:58:00,
2013-04-25 15:03:00,70.7,23.8,30.27,ENE,68,2.7,3.1,17,0.00,,CLR,0.00,VWS V14.01,2013-04-25 19:03:00,
2013-04-25 15:08:00,70.2,23.4,30.24,South,180,3.6,4.0,17,0.00,,CLR,0.00,VWS V14.01,2013-04-25 19:08:00,
2013-04-25 15:13:00,69.6,22.9,30.24,West,270,2.2,3.6,17,0.00,,CLR,0.00,VWS V14.01,2013-04-25 19:13:00,
2013-04-25 15:19:00,70.9,23.9,30.24,SW,225,3.1,4.0,17,0.00,,CLR,0.00,VWS V14.01,2013-04-25 19:19:00,
2013-04-25 15:24:00,70.3,23.5,30.24,SSW,202,4.0,4.0,17,0.00,,CLR,0.00,VWS V14.01,2013-04-25 19:24:00,
2013-04-25 15:29:00,69.8,23.1,30.24,WSW,248,2.7,5.8,17,0.00,,CLR,0.00,VWS V14.01,2013-04-25 19:29:00,
2013-04-25 15:34:00,70.3,23.5,30.24,South,180,3.1,3.1,17,0.00,,CLR,0.00,VWS V14.01,2013-04-25 19:34:00,
2013-04-25 15:39:00,69.4,22.8,30.24,SSE,158,3.1,5.8,17,0.00,,CLR,0.00,VWS V14.01,2013-04-25 19:39:00,
2013-04-25 15:44:00,69.6,22.9,30.24,SSE,158,3.1,4.0,17,0.00,,CLR,0.00,VWS V14.01,2013-04-25 19:44:00,
2013-04-25 15:49:00,69.6,22.9,30.24,West,270,3.1,3.1,17,0.00,,CLR,0.00,VWS V14.01,2013-04-25 19:49:00,
2013-04-25 15:54:00,70.2,23.4,30.24,WSW,248,3.1,3.1,17,0.00,,CLR,0.00,VWS V14.01,2013-04-25 19:54:00,
2013-04-25 15:59:00,69.8,23.1,30.24,South,180,0.0,4.0,17,0.00,,CLR,0.00,VWS V14.01,2013-04-25 19:59:00,
2013-04-25 16:04:00,70.2,23.4,30.24,ESE,112,2.7,3.6,17,0.00,,CLR,0.00,VWS V14.01,2013-04-25 20:04:00,
2013-04-25 16:09:00,70.0,23.2,30.24,SE,135,7.6,7.6,17,0.00,,CLR,0.00,VWS V14.01,2013-04-25 20:09:00,
2013-04-25 16:14:00,69.8,23.1,30.24,SSE,158,4.9,5.4,17,0.00,,CLR,0.00,VWS V14.01,2013-04-25 20:14:00,
2013-04-25 16:19:00,70.3,23.5,30.24,ENE,68,4.9,4.9,17,0.00,,CLR,0.00,VWS V14.01,2013-04-25 20:19:00,
2013-04-25 16:24:00,69.8,23.1,30.21,South,180,2.7,4.0,17,0.00,,CLR,0.00,VWS V14.01,2013-04-25 20:24:00,
2013-04-25 16:29:00,70.0,23.2,30.21,SSE,158,3.6,3.6,17,0.00,,CLR,0.00,VWS V14.01,2013-04-25 20:29:00,
2013-04-25 16:34:00,70.5,23.6,30.21,NNE,22,3.1,3.1,17,0.00,,CLR,0.00,VWS V14.01,2013-04-25 20:34:00,
2013-04-25 16:39:00,71.1,24.1,30.21,NNE,22,3.6,3.6,17,0.00,,CLR,0.00,VWS V14.01,2013-04-25 20:39:00,
2013-04-25 16:44:00,71.8,23.2,30.21,NNW,338,2.2,2.2,16,0.00,,CLR,0.00,VWS V14.01,2013-04-25 20:44:00,
2013-04-25 16:49:00,72.0,23.4,30.21,ENE,68,4.0,4.0,16,0.00,,CLR,0.00,VWS V14.01,2013-04-25 20:49:00,
2013-04-25 16:54:00,72.0,23.4,30.21,North,0,2.7,2.7,16,0.00,,CLR,0.00,VWS V14.01,2013-04-25 20:54:00,
2013-04-25 16:59:00,71.1,24.1,30.21,NE,45,4.0,4.0,17,0.00,,CLR,0.00,VWS V14.01,2013-04-25 20:59:00,
2013-04-25 17:04:00,70.9,23.9,30.21,WSW,248,5.8,5.8,17,0.00,,CLR,0.00,VWS V14.01,2013-04-25 21:04:00,
2013-04-25 17:09:00,71.8,23.2,30.21,SW,225,0.0,0.0,16,0.00,,CLR,0.00,VWS V14.01,2013-04-25 21:09:00,
2013-04-25 17:14:00,72.1,23.5,30.21,NW,315,2.7,2.7,16,0.00,,CLR,0.00,VWS V14.01,2013-04-25 21:14:00,
2013-04-25 17:19:00,71.6,23.1,30.21,South,180,3.6,3.6,16,0.00,,CLR,0.00,VWS V14.01,2013-04-25 21:19:00,
2013-04-25 17:24:00,71.8,23.2,30.21,South,180,0.0,0.0,16,0.00,,CLR,0.00,VWS V14.01,2013-04-25 21:24:00,
2013-04-25 17:29:00,72.3,23.6,30.21,SE,135,0.0,0.0,16,0.00,,CLR,0.00,VWS V14.01,2013-04-25 21:29:00,
2013-04-25 17:34:00,71.4,24.4,30.21,SW,225,0.0,2.7,17,0.00,,CLR,0.00,VWS V14.01,2013-04-25 21:34:00,
2013-04-25 17:39:00,71.4,24.4,30.21,SW,225,3.1,3.1,17,0.00,,CLR,0.00,VWS V14.01,2013-04-25 21:39:00,
2013-04-25 17:44:00,71.4,24.4,30.21,WSW,248,2.7,3.6,17,0.00,,CLR,0.00,VWS V14.01,2013-04-25 21:44:00,
2013-04-25 17:49:00,71.2,24.2,30.21,West,270,2.7,3.1,17,0.00,,CLR,0.00,VWS V14.01,2013-04-25 21:49:00,
2013-04-25 17:54:00,70.9,23.9,30.21,SW,225,3.1,3.1,17,0.00,,CLR,0.00,VWS V14.01,2013-04-25 21:54:00,
2013-04-25 17:59:00,70.9,23.9,30.21,SW,225,2.7,2.7,17,0.00,,CLR,0.00,VWS V14.01,2013-04-25 21:59:00,
2013-04-25 18:04:00,71.6,23.1,30.21,WNW,292,2.7,2.7,16,0.00,,CLR,0.00,VWS V14.01,2013-04-25 22:04:00,
2013-04-25 18:09:00,71.1,24.1,30.21,WNW,292,3.1,3.1,17,0.00,,CLR,0.00,VWS V14.01,2013-04-25 22:09:00,
2013-04-25 18:14:00,71.4,24.4,30.21,West,270,4.0,4.0,17,0.00,,CLR,0.00,VWS V14.01,2013-04-25 22:14:00,
2013-04-25 18:19:00,71.2,24.2,30.21,WNW,292,2.2,4.0,17,0.00,,CLR,0.00,VWS V14.01,2013-04-25 22:19:00,
2013-04-25 18:24:00,71.8,23.2,30.24,WNW,292,2.7,3.1,16,0.00,,CLR,0.00,VWS V14.01,2013-04-25 22:24:00,
2013-04-25 18:29:00,71.2,24.2,30.24,WNW,292,0.0,0.0,17,0.00,,CLR,0.00,VWS V14.01,2013-04-25 22:29:00,
2013-04-25 18:34:00,71.2,24.2,30.24,WNW,292,3.6,4.9,17,0.00,,CLR,0.00,VWS V14.01,2013-04-25 22:34:00,
2013-04-25 18:39:00,70.7,23.8,30.24,WNW,292,2.7,2.7,17,0.00,,CLR,0.00,VWS V14.01,2013-04-25 22:39:00,
2013-04-25 18:44:00,70.5,23.6,30.24,NNW,338,3.1,3.1,17,0.00,,CLR,0.00,VWS V14.01,2013-04-25 22:44:00,
2013-04-25 18:49:00,70.3,23.5,30.24,WNW,292,0.0,0.0,17,0.00,,CLR,0.00,VWS V14.01,2013-04-25 22:49:00,
2013-04-25 18:54:00,69.8,23.1,30.24,WNW,292,2.2,2.2,17,0.00,,CLR,0.00,VWS V14.01,2013-04-25 22:54:00,
2013-04-25 18:59:00,69.1,22.5,30.24,WNW,292,3.6,3.6,17,0.00,,CLR,0.00,VWS V14.01,2013-04-25 22:59:00,
2013-04-25 19:04:00,68.5,22.0,30.24,WNW,292,3.1,3.1,17,0.00,,CLR,0.00,VWS V14.01,2013-04-25 23:04:00,
2013-04-25 19:09:00,68.0,21.6,30.24,North,0,0.0,2.7,17,0.00,,CLR,0.00,VWS V14.01,2013-04-25 23:09:00,
2013-04-25 19:14:00,67.6,21.3,30.24,NW,315,2.7,4.0,17,0.00,,CLR,0.00,VWS V14.01,2013-04-25 23:14:00,
2013-04-25 19:19:00,67.3,21.0,30.24,NW,315,0.0,3.1,17,0.00,,CLR,0.00,VWS V14.01,2013-04-25 23:19:00,
2013-04-25 19:24:00,66.6,20.4,30.24,NW,315,2.2,2.7,17,0.00,,CLR,0.00,VWS V14.01,2013-04-25 23:24:00,
2013-04-25 19:29:00,66.4,20.3,30.24,NW,315,0.0,2.7,17,0.00,,CLR,0.00,VWS V14.01,2013-04-25 23:29:00,
2013-04-25 19:35:00,65.7,21.0,30.24,NW,315,0.0,0.0,18,0.00,,CLR,0.00,VWS V14.01,2013-04-25 23:35:00,
2013-04-25 19:40:00,65.1,20.6,30.24,NW,315,0.0,2.7,18,0.00,,CLR,0.00,VWS V14.01,2013-04-25 23:40:00,
2013-04-25 19:45:00,64.6,20.1,30.24,NW,315,2.2,2.7,18,0.00,,CLR,0.00,VWS V14.01,2013-04-25 23:45:00,
2013-04-25 19:50:00,64.0,19.7,30.24,NW,315,0.0,2.2,18,0.00,,CLR,0.00,VWS V14.01,2013-04-25 23:50:00,
2013-04-25 19:55:00,64.0,19.7,30.24,NW,315,0.0,0.0,18,0.00,,CLR,0.00,VWS V14.01,2013-04-25 23:55:00,
2013-04-25 20:00:00,64.0,19.7,30.24,NW,315,0.0,0.0,18,0.00,,CLR,0.00,VWS V14.01,2013-04-26 00:00:00,
2013-04-25 20:05:00,61.9,19.2,30.24,NW,315,0.0,0.0,19,0.00,,CLR,0.00,VWS V14.01,2013-04-26 00:05:00,
2013-04-25 20:10:00,61.2,18.6,30.27,NW,315,0.0,0.0,19,0.00,,CLR,0.00,VWS V14.01,2013-04-26 00:10:00,
2013-04-25 20:15:00,61.2,18.6,30.27,NW,315,0.0,0.0,19,0.00,,CLR,0.00,VWS V14.01,2013-04-26 00:15:00,
2013-04-25 20:20:00,59.9,17.6,30.27,NE,45,0.0,2.2,19,0.00,,CLR,0.00,VWS V14.01,2013-04-26 00:20:00,
2013-04-25 20:25:00,59.4,17.1,30.27,NE,45,0.0,0.0,19,0.00,,CLR,0.00,VWS V14.01,2013-04-26 00:25:00,
2013-04-25 20:30:00,59.0,16.8,30.27,NE,45,0.0,0.0,19,0.00,,CLR,0.00,VWS V14.01,2013-04-26 00:30:00,
2013-04-25 20:35:00,58.6,14.0,30.27,NE,45,0.0,0.0,17,0.00,,CLR,0.00,VWS V14.01,2013-04-26 00:35:00,
2013-04-25 20:40:00,58.3,13.7,30.27,NE,45,0.0,0.0,17,0.00,,CLR,0.00,VWS V14.01,2013-04-26 00:40:00,
2013-04-25 20:45:00,57.7,13.2,30.27,NE,45,0.0,0.0,17,0.00,,CLR,0.00,VWS V14.01,2013-04-26 00:45:00,
2013-04-25 20:50:00,57.2,12.8,30.27,NE,45,0.0,0.0,17,0.00,,CLR,0.00,VWS V14.01,2013-04-26 00:50:00,
2013-04-25 20:55:00,56.7,12.4,30.30,NE,45,0.0,0.0,17,0.00,,CLR,0.00,VWS V14.01,2013-04-26 00:55:00,
2013-04-25 21:00:00,56.7,12.4,30.30,NE,45,0.0,0.0,17,0.00,,CLR,0.00,VWS V14.01,2013-04-26 01:00:00,
2013-04-25 21:05:00,56.5,15.9,30.30,NE,45,2.7,2.7,20,0.00,,CLR,0.00,VWS V14.01,2013-04-26 01:05:00,
2013-04-25 21:10:00,56.7,16.1,30.30,NE,45,2.2,2.2,20,0.00,,CLR,0.00,VWS V14.01,2013-04-26 01:10:00,
2013-04-25 21:15:00,56.3,15.8,30.30,NE,45,0.0,0.0,20,0.00,,CLR,0.00,VWS V14.01,2013-04-26 01:15:00,
2013-04-25 21:20:00,56.1,15.6,30.30,NE,45,0.0,0.0,20,0.00,,CLR,0.00,VWS V14.01,2013-04-26 01:20:00,
2013-04-25 21:25:00,55.8,15.3,30.30,NE,45,0.0,0.0,20,0.00,,CLR,0.00,VWS V14.01,2013-04-26 01:25:00,
2013-04-25 21:40:00,54.9,14.6,30.30,NE,45,0.0,0.0,20,0.00,,CLR,0.00,VWS V14.01,2013-04-26 01:40:00,
2013-04-25 21:46:00,54.3,14.1,30.30,NE,45,0.0,0.0,20,0.00,,CLR,0.00,VWS V14.01,2013-04-26 01:46:00,
2013-04-25 21:54:00,54.1,14.0,30.33,NE,45,0.0,0.0,20,0.00,,CLR,0.00,VWS V14.01,2013-04-26 01:54:00,
2013-04-25 22:01:00,53.4,16.6,30.33,NE,45,0.0,0.0,23,0.00,,CLR,0.00,VWS V14.01,2013-04-26 02:01:00,
2013-04-25 23:10:00,49.5,20.9,30.33,NE,45,0.0,0.0,32,0.00,,CLR,0.00,VWS V14.01,2013-04-26 03:10:00,
2013-04-25 23:15:00,49.1,19.8,30.33,NE,45,0.0,0.0,31,0.00,,CLR,0.00,VWS V14.01,2013-04-26 03:15:00,
2013-04-25 23:20:00,48.9,23.8,30.33,NE,45,0.0,0.0,37,0.00,,CLR,0.00,VWS V14.01,2013-04-26 03:20:00,
2013-04-25 23:25:00,48.4,24.0,30.33,NE,45,0.0,0.0,38,0.00,,CLR,0.00,VWS V14.01,2013-04-26 03:25:00,
2013-04-25 23:30:00,48.2,23.2,30.33,NE,45,0.0,0.0,37,0.00,,CLR,0.00,VWS V14.01,2013-04-26 03:30:00,
2013-04-25 23:35:00,47.8,24.1,30.33,NE,45,0.0,0.0,39,0.00,,CLR,0.00,VWS V14.01,2013-04-26 03:35:00,
2013-04-25 23:40:00,47.5,25.0,30.33,NE,45,0.0,0.0,41,0.00,,CLR,0.00,VWS V14.01,2013-04-26 03:40:00,
2013-04-25 23:45:00,46.9,25.1,30.33,NE,45,0.0,0.0,42,0.00,,CLR,0.00,VWS V14.01,2013-04-26 03:45:00,
2013-04-25 23:50:00,46.4,24.6,30.33,NE,45,0.0,0.0,42,0.00,,CLR,0.00,VWS V14.01,2013-04-26 03:50:00,
2013-04-25 23:55:00,46.6,24.7,30.36,NE,45,0.0,0.0,42,0.00,,CLR,0.00,VWS V14.01,2013-04-26 03:55:00,